sensor_id;sensor_type;location;lat;lon;timestamp;temperature;humidity
55121;DHT22;41019;48.512;9.036;2023-04-21T00:01:18;6.90;99.90
55121;DHT22;41019;48.512;9.036;2023-04-21T00:03:44;6.90;99.90
55121;DHT22;41019;48.512;9.036;2023-04-21T00:06:11;6.80;99.90
55121;DHT22;41019;48.512;9.036;2023-04-21T00:08:36;6.80;99.60
55121;DHT22;41019;48.512;9.036;2023-04-21T00:11:08;6.70;99.60
55121;DHT22;41019;48.512;9.036;2023-04-21T00:13:35;6.70;99.60
55121;DHT22;41019;48.512;9.036;2023-04-21T00:16:02;6.60;99.70
55121;DHT22;41019;48.512;9.036;2023-04-21T00:18:28;6.60;99.90
55121;DHT22;41019;48.512;9.036;2023-04-21T00:20:54;6.60;99.80
55121;DHT22;41019;48.512;9.036;2023-04-21T00:23:21;6.50;99.70
55121;DHT22;41019;48.512;9.036;2023-04-21T00:25:47;6.50;99.90
55121;DHT22;41019;48.512;9.036;2023-04-21T00:28:12;6.40;99.90
55121;DHT22;41019;48.512;9.036;2023-04-21T00:30:38;6.40;99.90
55121;DHT22;41019;48.512;9.036;2023-04-21T00:33:05;6.30;99.70
55121;DHT22;41019;48.512;9.036;2023-04-21T00:35:31;6.30;99.90
55121;DHT22;41019;48.512;9.036;2023-04-21T00:37:57;6.30;99.90
55121;DHT22;41019;48.512;9.036;2023-04-21T00:40:23;6.20;99.80
55121;DHT22;41019;48.512;9.036;2023-04-21T00:42:49;6.20;99.60
55121;DHT22;41019;48.512;9.036;2023-04-21T00:45:15;6.20;99.60
55121;DHT22;41019;48.512;9.036;2023-04-21T00:47:42;6.10;99.50
55121;DHT22;41019;48.512;9.036;2023-04-21T00:50:10;6.10;99.40
55121;DHT22;41019;48.512;9.036;2023-04-21T00:52:39;6.00;99.30
55121;DHT22;41019;48.512;9.036;2023-04-21T00:55:07;6.00;99.40
55121;DHT22;41019;48.512;9.036;2023-04-21T00:57:36;5.90;99.20
55121;DHT22;41019;48.512;9.036;2023-04-21T01:00:03;5.80;98.80
55121;DHT22;41019;48.512;9.036;2023-04-21T01:02:31;5.80;99.20
55121;DHT22;41019;48.512;9.036;2023-04-21T01:04:59;5.70;99.20
55121;DHT22;41019;48.512;9.036;2023-04-21T01:07:26;5.70;99.20
55121;DHT22;41019;48.512;9.036;2023-04-21T01:09:52;5.60;99.30
55121;DHT22;41019;48.512;9.036;2023-04-21T01:12:19;5.50;99.40
55121;DHT22;41019;48.512;9.036;2023-04-21T01:14:45;5.50;99.40
55121;DHT22;41019;48.512;9.036;2023-04-21T01:17:10;5.40;99.20
55121;DHT22;41019;48.512;9.036;2023-04-21T01:19:40;5.40;99.50
55121;DHT22;41019;48.512;9.036;2023-04-21T01:22:08;5.30;99.20
55121;DHT22;41019;48.512;9.036;2023-04-21T01:24:39;5.30;99.20
55121;DHT22;41019;48.512;9.036;2023-04-21T01:27:16;5.20;99.10
55121;DHT22;41019;48.512;9.036;2023-04-21T01:29:45;5.10;99.20
55121;DHT22;41019;48.512;9.036;2023-04-21T01:32:29;5.10;99.20
55121;DHT22;41019;48.512;9.036;2023-04-21T01:34:58;5.10;99.30
55121;DHT22;41019;48.512;9.036;2023-04-21T01:37:28;5.10;99.60
55121;DHT22;41019;48.512;9.036;2023-04-21T01:39:57;5.10;99.80
55121;DHT22;41019;48.512;9.036;2023-04-21T01:42:25;5.10;99.90
55121;DHT22;41019;48.512;9.036;2023-04-21T01:44:52;5.10;99.90
55121;DHT22;41019;48.512;9.036;2023-04-21T01:47:20;5.10;99.90
55121;DHT22;41019;48.512;9.036;2023-04-21T01:49:46;5.10;99.90
55121;DHT22;41019;48.512;9.036;2023-04-21T01:52:12;5.20;99.90
55121;DHT22;41019;48.512;9.036;2023-04-21T01:54:39;5.20;99.90
55121;DHT22;41019;48.512;9.036;2023-04-21T01:57:06;5.30;99.90
55121;DHT22;41019;48.512;9.036;2023-04-21T01:59:32;5.30;99.90
55121;DHT22;41019;48.512;9.036;2023-04-21T02:01:58;5.30;99.90
55121;DHT22;41019;48.512;9.036;2023-04-21T02:04:24;5.30;99.90
55121;DHT22;41019;48.512;9.036;2023-04-21T02:06:50;5.30;99.90
55121;DHT22;41019;48.512;9.036;2023-04-21T02:09:16;5.40;99.90
55121;DHT22;41019;48.512;9.036;2023-04-21T02:11:42;5.40;99.90
55121;DHT22;41019;48.512;9.036;2023-04-21T02:14:08;5.40;99.90
55121;DHT22;41019;48.512;9.036;2023-04-21T02:16:34;5.50;99.90
55121;DHT22;41019;48.512;9.036;2023-04-21T02:19:00;5.50;99.90
55121;DHT22;41019;48.512;9.036;2023-04-21T02:21:27;5.50;99.90
55121;DHT22;41019;48.512;9.036;2023-04-21T02:23:53;5.50;99.90
55121;DHT22;41019;48.512;9.036;2023-04-21T02:26:20;5.50;99.90
55121;DHT22;41019;48.512;9.036;2023-04-21T02:28:46;5.40;99.90
55121;DHT22;41019;48.512;9.036;2023-04-21T02:31:14;5.50;99.90
55121;DHT22;41019;48.512;9.036;2023-04-21T02:33:40;5.40;99.90
55121;DHT22;41019;48.512;9.036;2023-04-21T02:36:07;5.40;99.90
55121;DHT22;41019;48.512;9.036;2023-04-21T02:38:32;5.40;99.90
55121;DHT22;41019;48.512;9.036;2023-04-21T02:40:58;5.40;99.90
55121;DHT22;41019;48.512;9.036;2023-04-21T02:43:24;5.30;99.90
55121;DHT22;41019;48.512;9.036;2023-04-21T02:45:50;5.30;99.90
55121;DHT22;41019;48.512;9.036;2023-04-21T02:48:17;5.40;99.90
55121;DHT22;41019;48.512;9.036;2023-04-21T02:50:52;5.40;99.90
55121;DHT22;41019;48.512;9.036;2023-04-21T02:53:21;5.50;99.90
55121;DHT22;41019;48.512;9.036;2023-04-21T02:55:47;5.40;99.90
55121;DHT22;41019;48.512;9.036;2023-04-21T02:58:13;5.40;99.90
55121;DHT22;41019;48.512;9.036;2023-04-21T03:00:40;5.40;99.90
55121;DHT22;41019;48.512;9.036;2023-04-21T03:03:06;5.40;99.90
55121;DHT22;41019;48.512;9.036;2023-04-21T03:05:32;5.30;99.90
55121;DHT22;41019;48.512;9.036;2023-04-21T03:07:58;5.30;99.90
55121;DHT22;41019;48.512;9.036;2023-04-21T03:10:24;5.30;99.90
55121;DHT22;41019;48.512;9.036;2023-04-21T03:12:50;5.20;99.90
55121;DHT22;41019;48.512;9.036;2023-04-21T03:15:16;5.20;99.90
55121;DHT22;41019;48.512;9.036;2023-04-21T03:17:42;5.20;99.90
55121;DHT22;41019;48.512;9.036;2023-04-21T03:20:08;5.20;99.90
55121;DHT22;41019;48.512;9.036;2023-04-21T03:22:39;5.20;99.90
55121;DHT22;41019;48.512;9.036;2023-04-21T03:25:05;5.20;99.90
55121;DHT22;41019;48.512;9.036;2023-04-21T03:27:32;5.20;99.90
55121;DHT22;41019;48.512;9.036;2023-04-21T03:29:58;5.20;99.90
55121;DHT22;41019;48.512;9.036;2023-04-21T03:32:25;5.20;99.90
55121;DHT22;41019;48.512;9.036;2023-04-21T03:34:51;5.20;99.90
55121;DHT22;41019;48.512;9.036;2023-04-21T03:37:18;5.20;99.90
55121;DHT22;41019;48.512;9.036;2023-04-21T03:39:44;5.20;99.90
55121;DHT22;41019;48.512;9.036;2023-04-21T03:42:12;5.20;99.90
55121;DHT22;41019;48.512;9.036;2023-04-21T03:44:37;5.10;99.90
55121;DHT22;41019;48.512;9.036;2023-04-21T03:47:04;5.20;99.90
55121;DHT22;41019;48.512;9.036;2023-04-21T03:49:32;5.20;99.90
55121;DHT22;41019;48.512;9.036;2023-04-21T03:51:58;5.20;99.90
55121;DHT22;41019;48.512;9.036;2023-04-21T03:54:24;5.10;99.90
55121;DHT22;41019;48.512;9.036;2023-04-21T03:56:50;5.10;99.90
55121;DHT22;41019;48.512;9.036;2023-04-21T03:59:16;5.10;99.90
55121;DHT22;41019;48.512;9.036;2023-04-21T04:01:42;5.10;99.90
55121;DHT22;41019;48.512;9.036;2023-04-21T04:04:08;5.10;99.90
55121;DHT22;41019;48.512;9.036;2023-04-21T04:06:34;5.10;99.90
55121;DHT22;41019;48.512;9.036;2023-04-21T04:09:00;5.10;99.90
55121;DHT22;41019;48.512;9.036;2023-04-21T04:11:30;5.10;99.90
55121;DHT22;41019;48.512;9.036;2023-04-21T04:13:56;5.10;99.90
55121;DHT22;41019;48.512;9.036;2023-04-21T04:16:23;5.10;99.90
55121;DHT22;41019;48.512;9.036;2023-04-21T04:18:49;5.10;99.90
55121;DHT22;41019;48.512;9.036;2023-04-21T04:21:15;5.10;99.90
55121;DHT22;41019;48.512;9.036;2023-04-21T04:23:41;5.10;99.90
55121;DHT22;41019;48.512;9.036;2023-04-21T04:26:08;5.10;99.90
55121;DHT22;41019;48.512;9.036;2023-04-21T04:28:36;5.10;99.90
55121;DHT22;41019;48.512;9.036;2023-04-21T04:31:03;5.00;99.90
55121;DHT22;41019;48.512;9.036;2023-04-21T04:33:28;5.00;99.90
55121;DHT22;41019;48.512;9.036;2023-04-21T04:35:55;5.10;99.90
55121;DHT22;41019;48.512;9.036;2023-04-21T04:38:20;5.00;99.90
55121;DHT22;41019;48.512;9.036;2023-04-21T04:40:54;5.10;99.90
55121;DHT22;41019;48.512;9.036;2023-04-21T04:43:22;5.00;99.90
55121;DHT22;41019;48.512;9.036;2023-04-21T04:45:48;5.10;99.90
55121;DHT22;41019;48.512;9.036;2023-04-21T04:48:15;5.00;99.90
55121;DHT22;41019;48.512;9.036;2023-04-21T04:50:41;5.00;99.90
55121;DHT22;41019;48.512;9.036;2023-04-21T04:53:06;5.00;99.90
55121;DHT22;41019;48.512;9.036;2023-04-21T04:55:32;5.10;99.90
55121;DHT22;41019;48.512;9.036;2023-04-21T04:57:58;5.10;99.90
55121;DHT22;41019;48.512;9.036;2023-04-21T05:00:24;5.10;99.90
55121;DHT22;41019;48.512;9.036;2023-04-21T05:02:51;5.10;99.90
55121;DHT22;41019;48.512;9.036;2023-04-21T05:05:17;5.10;99.90
55121;DHT22;41019;48.512;9.036;2023-04-21T05:07:43;5.20;99.90
55121;DHT22;41019;48.512;9.036;2023-04-21T05:10:09;5.10;99.90
55121;DHT22;41019;48.512;9.036;2023-04-21T05:12:34;5.10;99.90
55121;DHT22;41019;48.512;9.036;2023-04-21T05:15:00;5.10;99.90
55121;DHT22;41019;48.512;9.036;2023-04-21T05:17:26;5.20;99.90
55121;DHT22;41019;48.512;9.036;2023-04-21T05:19:53;5.20;99.90
55121;DHT22;41019;48.512;9.036;2023-04-21T05:22:19;5.20;99.90
55121;DHT22;41019;48.512;9.036;2023-04-21T05:24:45;5.30;99.90
55121;DHT22;41019;48.512;9.036;2023-04-21T05:27:11;5.20;99.90
55121;DHT22;41019;48.512;9.036;2023-04-21T05:29:37;5.30;99.90
55121;DHT22;41019;48.512;9.036;2023-04-21T05:32:02;5.30;99.90
55121;DHT22;41019;48.512;9.036;2023-04-21T05:34:28;5.30;99.90
55121;DHT22;41019;48.512;9.036;2023-04-21T05:36:55;5.30;99.90
55121;DHT22;41019;48.512;9.036;2023-04-21T05:39:20;5.30;99.90
55121;DHT22;41019;48.512;9.036;2023-04-21T05:41:46;5.30;99.90
55121;DHT22;41019;48.512;9.036;2023-04-21T05:44:15;5.30;99.90
55121;DHT22;41019;48.512;9.036;2023-04-21T05:46:42;5.30;99.90
55121;DHT22;41019;48.512;9.036;2023-04-21T05:49:08;5.30;99.90
55121;DHT22;41019;48.512;9.036;2023-04-21T05:51:34;5.30;99.90
55121;DHT22;41019;48.512;9.036;2023-04-21T05:53:59;5.30;99.90
55121;DHT22;41019;48.512;9.036;2023-04-21T05:56:25;5.40;99.90
55121;DHT22;41019;48.512;9.036;2023-04-21T05:58:51;5.30;99.90
55121;DHT22;41019;48.512;9.036;2023-04-21T06:01:17;5.30;99.90
55121;DHT22;41019;48.512;9.036;2023-04-21T06:03:43;5.40;99.90
55121;DHT22;41019;48.512;9.036;2023-04-21T06:06:09;5.40;99.90
55121;DHT22;41019;48.512;9.036;2023-04-21T06:08:36;5.40;99.90
55121;DHT22;41019;48.512;9.036;2023-04-21T06:11:02;5.50;99.90
55121;DHT22;41019;48.512;9.036;2023-04-21T06:13:28;5.50;99.90
55121;DHT22;41019;48.512;9.036;2023-04-21T06:15:54;5.50;99.90
55121;DHT22;41019;48.512;9.036;2023-04-21T06:18:20;5.60;99.90
55121;DHT22;41019;48.512;9.036;2023-04-21T06:20:50;5.60;99.90
55121;DHT22;41019;48.512;9.036;2023-04-21T06:23:16;5.60;99.90
55121;DHT22;41019;48.512;9.036;2023-04-21T06:25:42;5.60;99.90
55121;DHT22;41019;48.512;9.036;2023-04-21T06:28:08;5.60;99.90
55121;DHT22;41019;48.512;9.036;2023-04-21T06:30:34;5.70;99.90
55121;DHT22;41019;48.512;9.036;2023-04-21T06:33:00;5.80;99.90
55121;DHT22;41019;48.512;9.036;2023-04-21T06:35:26;5.80;99.90
55121;DHT22;41019;48.512;9.036;2023-04-21T06:37:52;5.90;99.90
55121;DHT22;41019;48.512;9.036;2023-04-21T06:40:18;5.90;99.90
55121;DHT22;41019;48.512;9.036;2023-04-21T06:42:44;6.00;99.90
55121;DHT22;41019;48.512;9.036;2023-04-21T06:45:11;6.00;99.90
55121;DHT22;41019;48.512;9.036;2023-04-21T06:47:36;6.00;99.90
55121;DHT22;41019;48.512;9.036;2023-04-21T06:50:03;6.10;99.90
55121;DHT22;41019;48.512;9.036;2023-04-21T06:52:29;6.20;99.90
55121;DHT22;41019;48.512;9.036;2023-04-21T06:54:55;6.20;99.80
55121;DHT22;41019;48.512;9.036;2023-04-21T06:57:22;6.30;99.80
55121;DHT22;41019;48.512;9.036;2023-04-21T06:59:47;6.30;99.80
55121;DHT22;41019;48.512;9.036;2023-04-21T07:02:13;6.30;99.50
55121;DHT22;41019;48.512;9.036;2023-04-21T07:04:39;6.30;99.60
55121;DHT22;41019;48.512;9.036;2023-04-21T07:07:05;6.30;99.50
55121;DHT22;41019;48.512;9.036;2023-04-21T07:09:31;6.30;99.50
55121;DHT22;41019;48.512;9.036;2023-04-21T07:11:59;6.30;99.30
55121;DHT22;41019;48.512;9.036;2023-04-21T07:14:25;6.30;99.30
55121;DHT22;41019;48.512;9.036;2023-04-21T07:16:51;6.40;99.70
55121;DHT22;41019;48.512;9.036;2023-04-21T07:19:18;6.50;99.40
55121;DHT22;41019;48.512;9.036;2023-04-21T07:21:44;6.50;99.40
55121;DHT22;41019;48.512;9.036;2023-04-21T07:24:10;6.60;99.50
55121;DHT22;41019;48.512;9.036;2023-04-21T07:26:35;6.60;98.90
55121;DHT22;41019;48.512;9.036;2023-04-21T07:29:02;6.70;98.90
55121;DHT22;41019;48.512;9.036;2023-04-21T07:31:27;6.80;99.10
55121;DHT22;41019;48.512;9.036;2023-04-21T07:33:53;6.90;98.80
55121;DHT22;41019;48.512;9.036;2023-04-21T07:36:20;7.00;98.80
55121;DHT22;41019;48.512;9.036;2023-04-21T07:38:46;7.10;98.60
55121;DHT22;41019;48.512;9.036;2023-04-21T07:41:13;7.20;98.20
55121;DHT22;41019;48.512;9.036;2023-04-21T07:43:39;7.30;97.80
55121;DHT22;41019;48.512;9.036;2023-04-21T07:46:06;7.40;98.10
55121;DHT22;41019;48.512;9.036;2023-04-21T07:48:32;7.50;98.00
55121;DHT22;41019;48.512;9.036;2023-04-21T07:50:57;7.60;97.90
55121;DHT22;41019;48.512;9.036;2023-04-21T07:53:25;7.70;97.70
55121;DHT22;41019;48.512;9.036;2023-04-21T07:55:52;7.80;97.50
55121;DHT22;41019;48.512;9.036;2023-04-21T07:58:19;8.00;96.70
55121;DHT22;41019;48.512;9.036;2023-04-21T08:00:46;8.10;96.80
55121;DHT22;41019;48.512;9.036;2023-04-21T08:03:12;8.20;97.00
55121;DHT22;41019;48.512;9.036;2023-04-21T08:05:38;8.40;96.90
55121;DHT22;41019;48.512;9.036;2023-04-21T08:08:04;8.50;96.50
55121;DHT22;41019;48.512;9.036;2023-04-21T08:10:30;8.70;96.60
55121;DHT22;41019;48.512;9.036;2023-04-21T08:12:56;8.70;96.20
55121;DHT22;41019;48.512;9.036;2023-04-21T08:15:22;8.70;95.70
55121;DHT22;41019;48.512;9.036;2023-04-21T08:17:48;8.80;96.80
55121;DHT22;41019;48.512;9.036;2023-04-21T08:20:15;9.00;96.50
55121;DHT22;41019;48.512;9.036;2023-04-21T08:22:41;9.20;95.50
55121;DHT22;41019;48.512;9.036;2023-04-21T08:25:06;9.40;96.00
55121;DHT22;41019;48.512;9.036;2023-04-21T08:27:32;9.60;95.30
55121;DHT22;41019;48.512;9.036;2023-04-21T08:29:59;9.70;94.10
55121;DHT22;41019;48.512;9.036;2023-04-21T08:32:25;9.80;94.90
55121;DHT22;41019;48.512;9.036;2023-04-21T08:34:52;10.00;94.60
55121;DHT22;41019;48.512;9.036;2023-04-21T08:37:18;10.30;94.30
55121;DHT22;41019;48.512;9.036;2023-04-21T08:39:44;10.30;93.80
55121;DHT22;41019;48.512;9.036;2023-04-21T08:42:16;10.50;93.40
55121;DHT22;41019;48.512;9.036;2023-04-21T08:44:42;10.70;92.50
55121;DHT22;41019;48.512;9.036;2023-04-21T08:47:13;11.10;93.10
55121;DHT22;41019;48.512;9.036;2023-04-21T08:49:40;11.50;93.40
55121;DHT22;41019;48.512;9.036;2023-04-21T08:52:07;11.70;91.40
55121;DHT22;41019;48.512;9.036;2023-04-21T08:54:33;11.90;90.30
55121;DHT22;41019;48.512;9.036;2023-04-21T08:57:03;12.00;89.60
55121;DHT22;41019;48.512;9.036;2023-04-21T08:59:29;12.20;90.80
55121;DHT22;41019;48.512;9.036;2023-04-21T09:02:14;12.60;91.20
55121;DHT22;41019;48.512;9.036;2023-04-21T09:04:43;12.60;89.20
55121;DHT22;41019;48.512;9.036;2023-04-21T09:07:09;12.90;88.00
55121;DHT22;41019;48.512;9.036;2023-04-21T09:09:55;13.20;88.30
55121;DHT22;41019;48.512;9.036;2023-04-21T09:12:22;13.50;85.60
55121;DHT22;41019;48.512;9.036;2023-04-21T09:14:48;13.60;84.50
55121;DHT22;41019;48.512;9.036;2023-04-21T09:17:19;13.80;84.60
55121;DHT22;41019;48.512;9.036;2023-04-21T09:19:45;14.00;84.60
55121;DHT22;41019;48.512;9.036;2023-04-21T09:22:17;14.30;84.20
55121;DHT22;41019;48.512;9.036;2023-04-21T09:24:48;14.50;83.10
55121;DHT22;41019;48.512;9.036;2023-04-21T09:27:15;14.70;80.50
55121;DHT22;41019;48.512;9.036;2023-04-21T09:29:48;15.00;80.60
55121;DHT22;41019;48.512;9.036;2023-04-21T09:32:16;15.30;79.00
55121;DHT22;41019;48.512;9.036;2023-04-21T09:34:43;15.50;77.40
55121;DHT22;41019;48.512;9.036;2023-04-21T09:37:11;15.60;77.20
55121;DHT22;41019;48.512;9.036;2023-04-21T09:39:38;15.80;78.30
55121;DHT22;41019;48.512;9.036;2023-04-21T09:42:04;16.00;77.00
55121;DHT22;41019;48.512;9.036;2023-04-21T09:44:30;16.10;76.00
55121;DHT22;41019;48.512;9.036;2023-04-21T09:47:00;16.20;74.50
55121;DHT22;41019;48.512;9.036;2023-04-21T09:49:30;16.50;75.00
55121;DHT22;41019;48.512;9.036;2023-04-21T09:52:01;16.60;73.40
55121;DHT22;41019;48.512;9.036;2023-04-21T09:54:32;16.70;73.30
55121;DHT22;41019;48.512;9.036;2023-04-21T09:57:00;16.90;72.00
55121;DHT22;41019;48.512;9.036;2023-04-21T09:59:45;17.00;72.50
55121;DHT22;41019;48.512;9.036;2023-04-21T10:02:17;17.30;71.30
55121;DHT22;41019;48.512;9.036;2023-04-21T10:04:44;17.50;74.20
55121;DHT22;41019;48.512;9.036;2023-04-21T10:07:11;17.60;71.50
55121;DHT22;41019;48.512;9.036;2023-04-21T10:09:58;17.80;71.90
55121;DHT22;41019;48.512;9.036;2023-04-21T10:12:25;18.10;71.90
55121;DHT22;41019;48.512;9.036;2023-04-21T10:14:55;18.30;69.10
55121;DHT22;41019;48.512;9.036;2023-04-21T10:17:23;18.40;69.10
55121;DHT22;41019;48.512;9.036;2023-04-21T10:19:52;18.50;67.90
55121;DHT22;41019;48.512;9.036;2023-04-21T10:22:26;18.50;66.90
55121;DHT22;41019;48.512;9.036;2023-04-21T10:24:58;18.50;68.50
55121;DHT22;41019;48.512;9.036;2023-04-21T10:27:33;18.70;68.70
55121;DHT22;41019;48.512;9.036;2023-04-21T10:29:59;19.00;67.20
55121;DHT22;41019;48.512;9.036;2023-04-21T10:32:39;19.20;66.80
55121;DHT22;41019;48.512;9.036;2023-04-21T10:35:14;19.40;65.40
55121;DHT22;41019;48.512;9.036;2023-04-21T10:37:42;19.50;66.50
55121;DHT22;41019;48.512;9.036;2023-04-21T10:40:31;19.80;66.00
55121;DHT22;41019;48.512;9.036;2023-04-21T10:42:57;19.90;65.20
55121;DHT22;41019;48.512;9.036;2023-04-21T10:45:24;20.10;64.30
55121;DHT22;41019;48.512;9.036;2023-04-21T10:47:52;20.10;64.50
55121;DHT22;41019;48.512;9.036;2023-04-21T10:53:06;20.70;63.40
55121;DHT22;41019;48.512;9.036;2023-04-21T10:55:33;20.50;63.10
55121;DHT22;41019;48.512;9.036;2023-04-21T10:58:01;20.50;63.00
55121;DHT22;41019;48.512;9.036;2023-04-21T11:00:27;20.60;63.20
55121;DHT22;41019;48.512;9.036;2023-04-21T11:02:59;20.60;63.20
55121;DHT22;41019;48.512;9.036;2023-04-21T11:05:37;20.50;63.00
55121;DHT22;41019;48.512;9.036;2023-04-21T11:08:07;20.50;63.40
55121;DHT22;41019;48.512;9.036;2023-04-21T11:13:15;20.70;63.50
55121;DHT22;41019;48.512;9.036;2023-04-21T11:15:40;21.10;63.60
55121;DHT22;41019;48.512;9.036;2023-04-21T11:18:06;21.10;63.00
55121;DHT22;41019;48.512;9.036;2023-04-21T11:20:39;21.10;62.90
55121;DHT22;41019;48.512;9.036;2023-04-21T11:23:05;21.30;62.60
55121;DHT22;41019;48.512;9.036;2023-04-21T11:25:31;21.40;62.00
55121;DHT22;41019;48.512;9.036;2023-04-21T11:27:57;21.60;63.70
55121;DHT22;41019;48.512;9.036;2023-04-21T11:30:34;21.40;62.00
55121;DHT22;41019;48.512;9.036;2023-04-21T11:33:00;21.60;63.00
55121;DHT22;41019;48.512;9.036;2023-04-21T11:35:26;21.90;62.50
55121;DHT22;41019;48.512;9.036;2023-04-21T11:37:54;22.00;60.90
55121;DHT22;41019;48.512;9.036;2023-04-21T11:40:20;22.10;62.20
55121;DHT22;41019;48.512;9.036;2023-04-21T11:42:46;22.30;59.90
55121;DHT22;41019;48.512;9.036;2023-04-21T11:45:17;22.30;59.70
55121;DHT22;41019;48.512;9.036;2023-04-21T11:47:44;22.40;59.40
55121;DHT22;41019;48.512;9.036;2023-04-21T11:50:10;22.60;61.50
55121;DHT22;41019;48.512;9.036;2023-04-21T11:52:36;22.70;58.90
55121;DHT22;41019;48.512;9.036;2023-04-21T11:55:05;22.60;58.70
55121;DHT22;41019;48.512;9.036;2023-04-21T11:57:33;22.70;58.40
55121;DHT22;41019;48.512;9.036;2023-04-21T12:00:04;22.70;58.30
55121;DHT22;41019;48.512;9.036;2023-04-21T12:02:36;22.80;57.20
55121;DHT22;41019;48.512;9.036;2023-04-21T12:05:10;22.90;57.80
55121;DHT22;41019;48.512;9.036;2023-04-21T12:07:40;23.10;57.90
55121;DHT22;41019;48.512;9.036;2023-04-21T12:10:12;23.10;56.90
55121;DHT22;41019;48.512;9.036;2023-04-21T12:12:40;23.10;56.80
55121;DHT22;41019;48.512;9.036;2023-04-21T12:15:11;23.20;56.50
55121;DHT22;41019;48.512;9.036;2023-04-21T12:17:48;23.10;56.70
55121;DHT22;41019;48.512;9.036;2023-04-21T12:20:16;23.10;55.60
55121;DHT22;41019;48.512;9.036;2023-04-21T12:22:42;23.00;56.50
55121;DHT22;41019;48.512;9.036;2023-04-21T12:25:08;22.90;56.00
55121;DHT22;41019;48.512;9.036;2023-04-21T12:27:34;22.80;56.00
55121;DHT22;41019;48.512;9.036;2023-04-21T12:30:01;22.80;56.30
55121;DHT22;41019;48.512;9.036;2023-04-21T12:32:27;22.80;57.70
55121;DHT22;41019;48.512;9.036;2023-04-21T12:34:54;23.00;57.60
55121;DHT22;41019;48.512;9.036;2023-04-21T12:37:20;23.00;56.10
55121;DHT22;41019;48.512;9.036;2023-04-21T12:39:46;23.10;55.80
55121;DHT22;41019;48.512;9.036;2023-04-21T12:42:12;23.20;56.00
55121;DHT22;41019;48.512;9.036;2023-04-21T12:44:38;23.30;56.40
55121;DHT22;41019;48.512;9.036;2023-04-21T12:47:05;23.60;55.30
55121;DHT22;41019;48.512;9.036;2023-04-21T12:49:31;23.40;54.10
55121;DHT22;41019;48.512;9.036;2023-04-21T12:51:57;23.30;54.10
55121;DHT22;41019;48.512;9.036;2023-04-21T12:54:22;23.40;54.00
55121;DHT22;41019;48.512;9.036;2023-04-21T12:56:48;23.70;55.80
55121;DHT22;41019;48.512;9.036;2023-04-21T12:59:14;23.70;54.40
55121;DHT22;41019;48.512;9.036;2023-04-21T13:01:41;23.80;54.10
55121;DHT22;41019;48.512;9.036;2023-04-21T13:04:08;23.90;54.40
55121;DHT22;41019;48.512;9.036;2023-04-21T13:06:34;23.60;52.70
55121;DHT22;41019;48.512;9.036;2023-04-21T13:09:01;23.60;53.40
55121;DHT22;41019;48.512;9.036;2023-04-21T13:11:27;23.50;54.30
55121;DHT22;41019;48.512;9.036;2023-04-21T13:13:53;23.50;53.90
55121;DHT22;41019;48.512;9.036;2023-04-21T13:16:19;23.80;53.80
55121;DHT22;41019;48.512;9.036;2023-04-21T13:18:45;23.80;52.70
55121;DHT22;41019;48.512;9.036;2023-04-21T13:21:12;23.90;52.70
55121;DHT22;41019;48.512;9.036;2023-04-21T13:23:38;24.00;53.10
55121;DHT22;41019;48.512;9.036;2023-04-21T13:26:04;23.90;52.20
55121;DHT22;41019;48.512;9.036;2023-04-21T13:28:30;23.90;53.00
55121;DHT22;41019;48.512;9.036;2023-04-21T13:30:56;24.00;52.80
55121;DHT22;41019;48.512;9.036;2023-04-21T13:33:22;24.20;52.10
55121;DHT22;41019;48.512;9.036;2023-04-21T13:35:48;24.30;52.40
55121;DHT22;41019;48.512;9.036;2023-04-21T13:38:14;24.30;51.40
55121;DHT22;41019;48.512;9.036;2023-04-21T13:40:40;24.30;51.60
55121;DHT22;41019;48.512;9.036;2023-04-21T13:43:07;24.30;51.30
55121;DHT22;41019;48.512;9.036;2023-04-21T13:45:33;24.10;50.80
55121;DHT22;41019;48.512;9.036;2023-04-21T13:47:58;24.00;51.20
55121;DHT22;41019;48.512;9.036;2023-04-21T13:50:24;24.00;51.90
55121;DHT22;41019;48.512;9.036;2023-04-21T13:52:50;24.00;51.60
55121;DHT22;41019;48.512;9.036;2023-04-21T13:55:17;23.90;51.50
55121;DHT22;41019;48.512;9.036;2023-04-21T13:57:43;23.90;51.60
55121;DHT22;41019;48.512;9.036;2023-04-21T14:00:09;23.90;51.70
55121;DHT22;41019;48.512;9.036;2023-04-21T14:02:37;23.90;52.10
55121;DHT22;41019;48.512;9.036;2023-04-21T14:05:03;23.90;51.20
55121;DHT22;41019;48.512;9.036;2023-04-21T14:07:30;23.80;51.60
55121;DHT22;41019;48.512;9.036;2023-04-21T14:09:56;23.80;51.40
55121;DHT22;41019;48.512;9.036;2023-04-21T14:12:23;23.80;51.00
55121;DHT22;41019;48.512;9.036;2023-04-21T14:14:51;23.90;51.30
55121;DHT22;41019;48.512;9.036;2023-04-21T14:17:16;24.00;50.70
55121;DHT22;41019;48.512;9.036;2023-04-21T14:19:42;23.80;50.00
55121;DHT22;41019;48.512;9.036;2023-04-21T14:22:08;23.60;50.20
55121;DHT22;41019;48.512;9.036;2023-04-21T14:24:34;23.30;50.80
55121;DHT22;41019;48.512;9.036;2023-04-21T14:27:00;23.10;51.30
55121;DHT22;41019;48.512;9.036;2023-04-21T14:29:26;22.80;52.20
55121;DHT22;41019;48.512;9.036;2023-04-21T14:31:52;22.70;53.10
55121;DHT22;41019;48.512;9.036;2023-04-21T14:34:23;22.50;52.50
55121;DHT22;41019;48.512;9.036;2023-04-21T14:36:51;22.30;52.90
55121;DHT22;41019;48.512;9.036;2023-04-21T14:39:17;22.10;53.60
55121;DHT22;41019;48.512;9.036;2023-04-21T14:41:43;21.90;54.10
55121;DHT22;41019;48.512;9.036;2023-04-21T14:44:09;21.90;55.00
55121;DHT22;41019;48.512;9.036;2023-04-21T14:46:36;21.90;55.50
55121;DHT22;41019;48.512;9.036;2023-04-21T14:49:03;21.80;55.00
55121;DHT22;41019;48.512;9.036;2023-04-21T14:51:29;21.80;54.10
55121;DHT22;41019;48.512;9.036;2023-04-21T14:53:56;21.90;54.60
55121;DHT22;41019;48.512;9.036;2023-04-21T14:56:22;21.90;55.30
55121;DHT22;41019;48.512;9.036;2023-04-21T14:58:48;21.90;55.20
55121;DHT22;41019;48.512;9.036;2023-04-21T15:01:14;21.80;56.60
55121;DHT22;41019;48.512;9.036;2023-04-21T15:03:40;21.80;55.40
55121;DHT22;41019;48.512;9.036;2023-04-21T15:06:06;21.70;55.10
55121;DHT22;41019;48.512;9.036;2023-04-21T15:08:32;21.60;55.00
55121;DHT22;41019;48.512;9.036;2023-04-21T15:10:58;21.50;55.20
55121;DHT22;41019;48.512;9.036;2023-04-21T15:13:24;21.50;55.20
55121;DHT22;41019;48.512;9.036;2023-04-21T15:15:50;21.40;55.70
55121;DHT22;41019;48.512;9.036;2023-04-21T15:18:17;21.30;55.30
55121;DHT22;41019;48.512;9.036;2023-04-21T15:20:43;21.40;55.20
55121;DHT22;41019;48.512;9.036;2023-04-21T15:23:10;21.40;55.30
55121;DHT22;41019;48.512;9.036;2023-04-21T15:25:37;21.50;55.20
55121;DHT22;41019;48.512;9.036;2023-04-21T15:28:03;21.50;55.00
55121;DHT22;41019;48.512;9.036;2023-04-21T15:30:29;21.50;54.90
55121;DHT22;41019;48.512;9.036;2023-04-21T15:32:55;21.50;54.90
55121;DHT22;41019;48.512;9.036;2023-04-21T15:35:20;21.30;55.40
55121;DHT22;41019;48.512;9.036;2023-04-21T15:37:46;21.30;55.30
55121;DHT22;41019;48.512;9.036;2023-04-21T15:40:12;21.20;55.30
55121;DHT22;41019;48.512;9.036;2023-04-21T15:42:38;21.10;55.70
55121;DHT22;41019;48.512;9.036;2023-04-21T15:45:05;21.10;55.80